createdAt,value
2023-04-07T00:01:50.675Z,3.28
2023-04-07T00:04:18.661Z,3.26
2023-04-07T00:06:46.591Z,3.24
2023-04-07T00:09:14.395Z,3.19
2023-04-07T00:11:42.210Z,3.09
2023-04-07T00:14:09.982Z,3.09
2023-04-07T00:16:37.644Z,3.10
2023-04-07T00:19:05.364Z,3.05
2023-04-07T00:21:33.030Z,3.03
2023-04-07T00:24:00.710Z,3.04
2023-04-07T00:26:31.659Z,3.02
2023-04-07T00:28:59.873Z,3.03
2023-04-07T00:31:27.777Z,3.01
2023-04-07T00:33:57.913Z,2.97
2023-04-07T00:36:27.293Z,2.89
2023-04-07T00:38:55.026Z,2.92
2023-04-07T00:41:22.789Z,2.90
2023-04-07T00:43:52.112Z,2.89
2023-04-07T00:46:22.672Z,2.90
2023-04-07T00:48:50.726Z,2.85
2023-04-07T00:51:23.443Z,2.84
2023-04-07T00:53:51.350Z,2.84
2023-04-07T00:56:19.120Z,2.81
2023-04-07T00:58:47.016Z,2.77
2023-04-07T01:01:41.310Z,2.72
2023-04-07T01:04:19.602Z,2.67
2023-04-07T01:06:51.172Z,2.67
2023-04-07T01:09:41.819Z,2.62
2023-04-07T01:12:21.269Z,2.55
2023-04-07T01:14:57.962Z,2.52
2023-04-07T01:17:41.987Z,2.47
2023-04-07T01:20:13.328Z,2.43
2023-04-07T01:22:53.502Z,2.46
2023-04-07T01:25:30.635Z,2.45
2023-04-07T01:28:02.173Z,2.39
2023-04-07T01:30:36.379Z,2.37
2023-04-07T01:33:04.930Z,2.30
2023-04-07T01:35:34.691Z,2.26
2023-04-07T01:38:03.577Z,2.22
2023-04-07T01:40:33.689Z,2.22
2023-04-07T01:43:02.269Z,2.20
2023-04-07T01:45:30.988Z,2.21
2023-04-07T01:47:59.483Z,2.14
2023-04-07T01:50:27.824Z,2.10
2023-04-07T01:52:56.313Z,2.04
2023-04-07T01:55:24.488Z,1.97
2023-04-07T01:58:06.530Z,1.96
2023-04-07T02:00:36.419Z,1.93
2023-04-07T02:03:21.203Z,1.89
2023-04-07T02:05:52.994Z,1.84
2023-04-07T02:08:24.845Z,1.82
2023-04-07T02:10:53.172Z,1.76
2023-04-07T02:13:21.381Z,1.74
2023-04-07T02:15:51.659Z,1.70
2023-04-07T02:18:20.489Z,1.69
2023-04-07T02:20:48.784Z,1.64
2023-04-07T02:23:16.879Z,1.59
2023-04-07T02:25:44.651Z,1.60
2023-04-07T02:28:12.474Z,1.56
2023-04-07T02:30:40.296Z,1.53
2023-04-07T02:33:08.114Z,1.52
2023-04-07T02:35:36.104Z,1.51
2023-04-07T02:38:03.899Z,1.53
2023-04-07T02:40:31.713Z,1.50
2023-04-07T02:42:59.531Z,1.50
2023-04-07T02:45:27.334Z,1.50
2023-04-07T02:47:55.198Z,1.48
2023-04-07T02:50:26.185Z,1.50
2023-04-07T02:52:56.915Z,1.54
2023-04-07T02:55:24.698Z,1.55
2023-04-07T02:57:52.696Z,1.57
2023-04-07T03:00:40.793Z,1.63
2023-04-07T03:03:16.252Z,1.71
2023-04-07T03:05:55.167Z,2.20
2023-04-07T03:08:22.963Z,2.64
2023-04-07T03:10:50.929Z,3.22
2023-04-07T03:13:24.426Z,3.70
2023-04-07T03:15:52.260Z,3.98
2023-04-07T03:18:21.070Z,4.12
2023-04-07T03:20:49.396Z,4.49
2023-04-07T03:23:18.535Z,4.73
2023-04-07T03:25:47.558Z,4.94
2023-04-07T03:28:17.608Z,5.53
2023-04-07T03:30:46.010Z,6.12
2023-04-07T03:33:14.213Z,6.50
2023-04-07T03:35:42.968Z,7.04
2023-04-07T03:38:12.254Z,7.52
2023-04-07T03:40:40.859Z,7.68
2023-04-07T03:43:12.653Z,8.23
2023-04-07T03:45:41.514Z,8.65
2023-04-07T03:48:12.282Z,9.07
2023-04-07T03:50:49.444Z,9.46
2023-04-07T03:53:19.859Z,9.82
2023-04-07T03:55:48.125Z,9.66
2023-04-07T03:58:25.518Z,9.90
2023-04-07T04:00:53.308Z,10.41
2023-04-07T04:03:21.213Z,10.29
2023-04-07T04:06:04.278Z,10.29
2023-04-07T04:08:33.620Z,11.02
2023-04-07T04:11:01.927Z,11.46
2023-04-07T04:13:36.356Z,11.26
2023-04-07T04:16:06.266Z,11.58
2023-04-07T04:18:35.087Z,11.59
2023-04-07T04:21:02.869Z,11.24
2023-04-07T04:23:31.539Z,11.37
2023-04-07T04:26:06.104Z,11.57
2023-04-07T04:28:34.532Z,11.84
2023-04-07T04:31:04.192Z,12.00
2023-04-07T04:33:37.029Z,12.04
2023-04-07T04:36:04.857Z,11.96
2023-04-07T04:38:33.352Z,11.95
2023-04-07T04:41:08.569Z,11.82
2023-04-07T04:43:36.626Z,11.87
2023-04-07T04:46:08.180Z,12.38
2023-04-07T04:48:41.554Z,12.45
2023-04-07T04:51:09.499Z,12.10
2023-04-07T04:53:39.240Z,11.68
2023-04-07T04:56:08.348Z,11.22
2023-04-07T04:58:42.337Z,11.34
2023-04-07T05:01:12.661Z,11.25
2023-04-07T05:03:46.114Z,11.42
2023-04-07T05:06:19.508Z,11.71
2023-04-07T05:08:49.480Z,12.06
2023-04-07T05:11:21.664Z,12.04
2023-04-07T05:13:53.195Z,12.06
2023-04-07T05:16:21.561Z,12.45
2023-04-07T05:18:50.157Z,12.63
2023-04-07T05:21:20.498Z,12.39
2023-04-07T05:23:48.580Z,12.35
2023-04-07T05:26:16.900Z,12.61
2023-04-07T05:28:44.880Z,12.50
2023-04-07T05:31:18.581Z,11.83
2023-04-07T05:33:49.148Z,11.99
2023-04-07T05:36:17.326Z,12.26
2023-04-07T05:38:45.772Z,12.41
2023-04-07T05:41:17.625Z,12.38
2023-04-07T05:43:45.449Z,12.11
2023-04-07T05:46:14.003Z,12.02
2023-04-07T05:48:49.759Z,12.33
2023-04-07T05:51:18.376Z,12.35
2023-04-07T05:53:46.618Z,12.14
2023-04-07T05:56:14.415Z,12.36
2023-04-07T05:58:49.022Z,12.84
2023-04-07T06:01:17.879Z,12.91
2023-04-07T06:03:45.855Z,12.67
2023-04-07T06:06:22.425Z,12.98
2023-04-07T06:08:50.939Z,13.35
2023-04-07T06:11:18.753Z,13.46
2023-04-07T06:13:46.944Z,13.52
2023-04-07T06:16:15.501Z,13.69
2023-04-07T06:18:44.020Z,13.36
2023-04-07T06:21:11.787Z,13.44
2023-04-07T06:23:39.638Z,13.73
2023-04-07T06:26:12.200Z,13.85
2023-04-07T06:28:40.472Z,13.93
2023-04-07T06:31:08.932Z,13.22
2023-04-07T06:33:37.897Z,12.50
2023-04-07T06:36:05.913Z,12.65
2023-04-07T06:38:33.765Z,12.94
2023-04-07T06:41:01.469Z,13.49
2023-04-07T06:43:29.962Z,13.70
2023-04-07T06:46:02.870Z,13.27
2023-04-07T06:48:30.879Z,13.17
2023-04-07T06:50:58.589Z,13.09
2023-04-07T06:53:26.560Z,12.88
2023-04-07T06:56:07.297Z,12.64
2023-04-07T06:58:35.853Z,12.48
2023-04-07T07:01:06.307Z,12.45
2023-04-07T07:03:34.425Z,12.07
2023-04-07T07:06:02.509Z,12.24
2023-04-07T07:08:31.009Z,11.98
2023-04-07T07:10:59.060Z,11.95
2023-04-07T07:13:27.484Z,11.93
2023-04-07T07:15:55.524Z,12.15
2023-04-07T07:18:23.302Z,12.30
2023-04-07T07:20:51.266Z,12.29
2023-04-07T07:23:19.131Z,11.67
2023-04-07T07:25:46.886Z,11.72
2023-04-07T07:28:14.700Z,11.93
2023-04-07T07:30:42.491Z,12.09
2023-04-07T07:33:10.374Z,12.24
2023-04-07T07:35:38.250Z,11.80
2023-04-07T07:38:06.203Z,11.03
2023-04-07T07:40:34.134Z,11.13
2023-04-07T07:43:01.900Z,11.20
2023-04-07T07:45:29.656Z,11.09
2023-04-07T07:47:57.619Z,11.05
2023-04-07T07:50:25.408Z,11.21
2023-04-07T07:52:53.122Z,10.74
2023-04-07T07:55:21.084Z,10.75
2023-04-07T07:57:48.809Z,10.64
2023-04-07T08:00:16.578Z,10.72
2023-04-07T08:02:44.395Z,10.60
2023-04-07T08:05:12.926Z,10.50
2023-04-07T08:07:40.894Z,10.42
2023-04-07T08:10:09.057Z,10.20
2023-04-07T08:12:36.973Z,9.94
2023-04-07T08:15:05.106Z,9.93
2023-04-07T08:17:32.870Z,10.00
2023-04-07T08:20:01.371Z,10.05
2023-04-07T08:22:29.048Z,9.86
2023-04-07T08:24:56.764Z,9.81
2023-04-07T08:27:24.491Z,9.97
2023-04-07T08:30:03.078Z,9.77
2023-04-07T08:32:39.294Z,9.70
2023-04-07T08:35:07.202Z,9.92
2023-04-07T08:37:36.149Z,10.10
2023-04-07T08:40:04.785Z,10.11
2023-04-07T08:42:34.773Z,10.29
2023-04-07T08:45:07.146Z,10.15
2023-04-07T08:47:36.134Z,10.00
2023-04-07T08:50:07.266Z,10.00
2023-04-07T08:52:40.277Z,10.11
2023-04-07T08:55:08.846Z,10.14
2023-04-07T08:57:37.181Z,10.14
2023-04-07T09:00:06.036Z,10.29
2023-04-07T09:02:37.361Z,10.48
2023-04-07T09:05:07.261Z,10.40
2023-04-07T09:07:37.066Z,10.34
2023-04-07T09:10:05.471Z,10.24
2023-04-07T09:12:33.819Z,10.12
2023-04-07T09:15:01.549Z,10.11
2023-04-07T09:17:30.156Z,10.00
2023-04-07T09:19:59.246Z,9.88
2023-04-07T09:22:40.634Z,9.90
2023-04-07T09:25:19.299Z,9.78
2023-04-07T09:28:03.862Z,9.71
2023-04-07T09:30:33.547Z,9.77
2023-04-07T09:33:02.003Z,9.76
2023-04-07T09:35:30.048Z,9.73
2023-04-07T09:38:08.580Z,9.70
2023-04-07T09:40:37.565Z,9.81
2023-04-07T09:43:06.484Z,9.88
2023-04-07T09:45:37.049Z,9.70
2023-04-07T09:48:09.291Z,9.71
2023-04-07T09:50:41.638Z,9.80
2023-04-07T09:53:09.511Z,9.80
2023-04-07T09:55:38.546Z,9.74
2023-04-07T09:58:06.649Z,9.53
2023-04-07T10:00:35.794Z,9.34
2023-04-07T10:03:04.368Z,9.37
2023-04-07T10:05:33.520Z,9.32
2023-04-07T10:08:02.778Z,9.29
2023-04-07T10:10:31.894Z,9.41
2023-04-07T10:12:59.666Z,9.44
2023-04-07T10:15:31.184Z,9.43
2023-04-07T10:17:59.856Z,9.45
2023-04-07T10:20:28.779Z,9.46
2023-04-07T10:23:06.833Z,9.53
2023-04-07T10:25:37.271Z,9.52
2023-04-07T10:28:07.348Z,9.60
2023-04-07T10:30:35.555Z,9.54
2023-04-07T10:33:03.803Z,9.45
2023-04-07T10:36:10.693Z,9.54
2023-04-07T10:38:38.467Z,9.60
2023-04-07T10:41:36.513Z,9.58
2023-04-07T10:44:08.494Z,9.57
2023-04-07T10:46:45.441Z,9.72
2023-04-07T10:49:15.145Z,9.70
2023-04-07T10:51:44.389Z,9.72
2023-04-07T10:54:23.293Z,9.81
2023-04-07T10:57:18.300Z,9.78
2023-04-07T11:00:10.717Z,9.79
2023-04-07T11:02:40.285Z,9.83
2023-04-07T11:05:08.978Z,9.73
2023-04-07T11:07:50.182Z,9.77
2023-04-07T11:10:19.454Z,9.77
2023-04-07T11:12:59.719Z,9.66
2023-04-07T11:15:27.546Z,9.54
2023-04-07T11:18:17.209Z,9.72
2023-04-07T11:20:47.018Z,9.84
2023-04-07T11:23:16.552Z,9.92
2023-04-07T11:25:46.175Z,9.82
2023-04-07T11:28:14.665Z,9.86
2023-04-07T11:30:54.126Z,9.84
2023-04-07T11:33:27.453Z,9.82
2023-04-07T11:35:59.077Z,9.78
2023-04-07T11:38:35.472Z,9.72
2023-04-07T11:41:14.579Z,9.77
2023-04-07T11:43:42.823Z,9.74
2023-04-07T11:46:19.954Z,9.70
2023-04-07T11:48:48.078Z,9.66
2023-04-07T11:51:24.053Z,9.72
2023-04-07T11:53:57.022Z,9.75
2023-04-07T11:56:24.724Z,9.83
2023-04-07T11:58:54.476Z,9.84
2023-04-07T12:01:24.727Z,9.88
2023-04-07T12:04:01.954Z,9.93
2023-04-07T12:06:42.084Z,9.94
2023-04-07T12:09:27.473Z,9.83
2023-04-07T12:11:55.756Z,9.80
2023-04-07T12:14:27.753Z,9.81
2023-04-07T12:16:56.628Z,9.75
2023-04-07T12:19:27.817Z,9.80
2023-04-07T12:21:56.559Z,9.90
2023-04-07T12:24:24.343Z,9.93
2023-04-07T12:26:52.173Z,9.94
2023-04-07T12:29:20.436Z,10.03
2023-04-07T12:31:51.343Z,10.16
2023-04-07T12:34:19.576Z,10.15
2023-04-07T12:36:47.645Z,10.09
2023-04-07T12:39:16.304Z,9.95
2023-04-07T12:41:46.072Z,9.86
2023-04-07T12:44:13.997Z,9.83
2023-04-07T12:46:43.250Z,9.87
2023-04-07T12:49:11.278Z,9.91
2023-04-07T12:51:40.284Z,9.89
2023-04-07T12:54:08.252Z,9.93
2023-04-07T12:56:36.419Z,10.00
2023-04-07T12:59:05.271Z,9.91
2023-04-07T13:01:34.328Z,9.92
2023-04-07T13:04:02.286Z,9.89
2023-04-07T13:06:30.855Z,9.89
2023-04-07T13:08:58.654Z,9.87
2023-04-07T13:11:26.545Z,9.86
2023-04-07T13:13:56.221Z,9.89
2023-04-07T13:16:25.190Z,9.89
2023-04-07T13:18:53.309Z,9.83
2023-04-07T13:23:53.775Z,9.81
2023-04-07T13:26:22.466Z,9.77
2023-04-07T13:28:50.290Z,9.80
2023-04-07T13:31:18.312Z,9.73
2023-04-07T13:33:46.203Z,9.79
2023-04-07T13:36:13.963Z,9.78
2023-04-07T13:38:47.518Z,9.81
2023-04-07T13:41:15.495Z,9.84
2023-04-07T13:43:43.238Z,9.82
2023-04-07T13:46:27.308Z,9.83
2023-04-07T13:48:57.054Z,9.84
2023-04-07T13:51:24.966Z,9.88
2023-04-07T13:53:52.767Z,9.86
2023-04-07T13:56:22.368Z,9.87
2023-04-07T13:58:50.647Z,9.88
2023-04-07T14:01:18.501Z,9.81
2023-04-07T14:03:47.169Z,9.74
2023-04-07T14:06:15.521Z,9.73
2023-04-07T14:08:43.222Z,9.77
2023-04-07T14:11:11.247Z,9.79
2023-04-07T14:13:39.010Z,9.77
2023-04-07T14:16:06.899Z,9.73
2023-04-07T14:18:34.700Z,9.67
2023-04-07T14:21:03.434Z,9.62
2023-04-07T14:23:37.368Z,9.53
2023-04-07T14:26:05.651Z,9.49
2023-04-07T14:28:33.752Z,9.47
2023-04-07T14:31:02.164Z,9.44
2023-04-07T14:33:30.061Z,9.40
2023-04-07T14:35:57.777Z,9.34
2023-04-07T14:38:26.139Z,9.31
2023-04-07T14:40:53.963Z,9.28
2023-04-07T14:43:21.789Z,9.23
2023-04-07T14:45:49.532Z,9.23
2023-04-07T14:48:17.586Z,9.20
2023-04-07T14:50:46.131Z,9.18
2023-04-07T14:53:32.961Z,9.18
2023-04-07T14:56:05.095Z,9.15
2023-04-07T14:58:32.866Z,9.09
2023-04-07T15:01:00.655Z,9.08
2023-04-07T15:03:28.676Z,9.03
2023-04-07T15:05:56.811Z,9.02
2023-04-07T15:08:24.570Z,8.97
2023-04-07T15:10:52.272Z,8.93
2023-04-07T15:13:19.963Z,8.86
2023-04-07T15:15:47.762Z,8.84
2023-04-07T15:18:15.708Z,8.79
2023-04-07T15:20:43.538Z,8.75
2023-04-07T15:23:11.564Z,8.65
2023-04-07T15:25:39.336Z,8.64
2023-04-07T15:28:07.137Z,8.60
2023-04-07T15:30:37.247Z,8.60
2023-04-07T15:33:05.182Z,8.51
2023-04-07T15:35:35.395Z,8.56
2023-04-07T15:38:03.142Z,8.49
2023-04-07T15:40:38.304Z,8.53
2023-04-07T15:43:07.025Z,8.51
2023-04-07T15:45:34.932Z,8.47
2023-04-07T15:48:02.704Z,8.40
2023-04-07T15:50:31.802Z,8.39
2023-04-07T15:52:59.605Z,8.34
2023-04-07T15:55:27.295Z,8.30
2023-04-07T15:57:55.040Z,8.27
2023-04-07T16:00:29.977Z,8.20
2023-04-07T16:02:58.591Z,8.16
2023-04-07T16:05:26.443Z,8.10
2023-04-07T16:07:56.720Z,8.02
2023-04-07T16:10:24.853Z,8.03
2023-04-07T16:12:52.581Z,7.99
2023-04-07T16:15:28.950Z,8.06
2023-04-07T16:18:09.107Z,8.03
2023-04-07T16:20:37.050Z,8.01
2023-04-07T16:23:07.761Z,7.96
2023-04-07T16:25:35.663Z,7.93
2023-04-07T16:28:03.628Z,7.88
2023-04-07T16:30:33.257Z,7.79
2023-04-07T16:33:01.749Z,7.79
2023-04-07T16:35:31.991Z,7.80
2023-04-07T16:38:04.739Z,7.77
2023-04-07T16:40:35.286Z,7.71
2023-04-07T16:43:03.182Z,7.63
2023-04-07T16:45:31.036Z,7.51
2023-04-07T16:47:58.868Z,7.49
2023-04-07T16:50:52.269Z,7.50
2023-04-07T16:53:21.306Z,7.43
2023-04-07T16:55:49.383Z,7.45
2023-04-07T16:58:21.589Z,7.42
2023-04-07T17:00:49.268Z,7.41
2023-04-07T17:03:17.189Z,7.35
2023-04-07T17:05:45.795Z,7.35
2023-04-07T17:08:13.545Z,7.36
2023-04-07T17:10:41.287Z,7.38
2023-04-07T17:13:09.061Z,7.34
2023-04-07T17:15:38.212Z,7.29
2023-04-07T17:18:06.353Z,7.24
2023-04-07T17:20:34.085Z,7.24
2023-04-07T17:23:01.831Z,7.21
2023-04-07T17:25:29.600Z,7.22
2023-04-07T17:27:57.484Z,7.17
2023-04-07T17:30:25.188Z,7.14
2023-04-07T17:32:53.781Z,7.04
2023-04-07T17:35:21.811Z,7.02
2023-04-07T17:37:50.207Z,6.99
2023-04-07T17:40:18.250Z,6.96
2023-04-07T17:42:46.356Z,6.94
2023-04-07T17:45:14.220Z,6.92
2023-04-07T17:47:41.964Z,6.93
2023-04-07T17:50:10.857Z,6.87
2023-04-07T17:52:41.562Z,6.84
2023-04-07T17:55:10.064Z,6.82
2023-04-07T17:57:38.645Z,6.78
2023-04-07T18:00:07.058Z,6.71
2023-04-07T18:02:41.213Z,6.68
2023-04-07T18:05:09.924Z,6.70
2023-04-07T18:07:37.976Z,6.70
2023-04-07T18:10:06.435Z,6.67
2023-04-07T18:12:36.675Z,6.64
2023-04-07T18:15:04.758Z,6.60
2023-04-07T18:17:32.667Z,6.52
2023-04-07T18:20:00.816Z,6.46
2023-04-07T18:22:28.706Z,6.44
2023-04-07T18:24:56.604Z,6.40
2023-04-07T18:27:25.444Z,6.40
2023-04-07T18:29:53.197Z,6.31
2023-04-07T18:32:21.202Z,6.31
2023-04-07T18:34:49.061Z,6.23
2023-04-07T18:37:17.170Z,6.27
2023-04-07T18:39:44.997Z,6.21
2023-04-07T18:42:12.825Z,6.23
2023-04-07T18:44:40.661Z,6.28
2023-04-07T18:47:08.619Z,6.20
2023-04-07T18:49:39.814Z,6.17
2023-04-07T18:52:07.627Z,6.16
2023-04-07T18:54:35.473Z,6.20
2023-04-07T18:57:04.070Z,6.18
2023-04-07T18:59:31.823Z,6.09
2023-04-07T19:01:59.704Z,6.08
2023-04-07T19:04:27.585Z,5.99
2023-04-07T19:06:57.577Z,6.04
2023-04-07T19:09:26.146Z,6.01
2023-04-07T19:11:53.922Z,5.99
2023-04-07T19:14:21.639Z,5.91
2023-04-07T19:16:49.507Z,5.88
2023-04-07T19:19:17.476Z,5.86
2023-04-07T19:21:45.315Z,5.85
2023-04-07T19:24:13.103Z,5.81
2023-04-07T19:26:41.094Z,5.75
2023-04-07T19:29:10.791Z,5.69
2023-04-07T19:31:39.174Z,5.67
2023-04-07T19:34:07.062Z,5.61
2023-04-07T19:36:34.839Z,5.57
2023-04-07T19:39:04.711Z,5.53
2023-04-07T19:41:33.221Z,5.49
2023-04-07T19:44:01.300Z,5.43
2023-04-07T19:46:29.224Z,5.37
2023-04-07T19:48:57.260Z,5.34
2023-04-07T19:51:25.045Z,5.34
2023-04-07T19:53:52.740Z,5.24
2023-04-07T19:56:20.624Z,5.23
2023-04-07T19:58:48.824Z,5.22
2023-04-07T20:01:18.010Z,5.20
2023-04-07T20:03:46.904Z,5.14
2023-04-07T20:06:15.359Z,5.13
2023-04-07T20:08:43.746Z,5.10
2023-04-07T20:11:13.215Z,5.09
2023-04-07T20:13:41.626Z,5.06
2023-04-07T20:16:10.125Z,5.01
2023-04-07T20:18:38.021Z,4.95
2023-04-07T20:21:09.992Z,4.90
2023-04-07T20:23:37.941Z,4.88
2023-04-07T20:26:05.763Z,4.83
2023-04-07T20:28:33.581Z,4.79
2023-04-07T20:31:01.444Z,4.75
2023-04-07T20:33:29.202Z,4.70
2023-04-07T20:35:56.922Z,4.63
2023-04-07T20:38:25.274Z,4.58
2023-04-07T20:40:53.380Z,4.59
2023-04-07T20:43:23.658Z,4.55
2023-04-07T20:45:52.358Z,4.49
2023-04-07T20:48:28.804Z,4.47
2023-04-07T20:50:56.467Z,4.43
2023-04-07T20:53:24.159Z,4.39
2023-04-07T20:55:52.096Z,4.35
2023-04-07T20:58:19.873Z,4.31
2023-04-07T21:00:47.977Z,4.30
2023-04-07T21:03:15.971Z,4.32
2023-04-07T21:05:45.098Z,4.35
2023-04-07T21:08:14.473Z,4.32
2023-04-07T21:10:42.492Z,4.29
2023-04-07T21:13:10.350Z,4.29
2023-04-07T21:15:38.301Z,4.23
2023-04-07T21:18:06.041Z,4.19
2023-04-07T21:20:38.847Z,4.15
2023-04-07T21:23:10.642Z,4.10
2023-04-07T21:25:38.422Z,4.13
2023-04-07T21:28:06.531Z,4.09
2023-04-07T21:30:34.314Z,4.02
2023-04-07T21:33:02.309Z,4.01
2023-04-07T21:35:30.048Z,3.99
2023-04-07T21:37:57.838Z,3.94
2023-04-07T21:40:25.517Z,3.94
2023-04-07T21:42:53.274Z,3.94
2023-04-07T21:45:21.023Z,3.94
2023-04-07T21:47:48.744Z,3.90
2023-04-07T21:50:16.897Z,3.86
2023-04-07T21:52:44.687Z,3.84
2023-04-07T21:55:12.749Z,3.83
2023-04-07T21:57:40.564Z,3.76
2023-04-07T22:00:09.270Z,3.74
2023-04-07T22:02:43.390Z,3.72
2023-04-07T22:05:11.404Z,3.66
2023-04-07T22:07:39.178Z,3.66
2023-04-07T22:10:07.767Z,3.63
2023-04-07T22:12:35.594Z,3.56
2023-04-07T22:15:03.515Z,3.54
2023-04-07T22:17:33.944Z,3.56
2023-04-07T22:20:01.756Z,3.53
2023-04-07T22:22:30.134Z,3.54
2023-04-07T22:24:57.853Z,3.55
2023-04-07T22:27:27.462Z,3.52
2023-04-07T22:29:55.766Z,3.49
2023-04-07T22:32:23.608Z,3.47
2023-04-07T22:34:51.767Z,3.41
2023-04-07T22:37:19.528Z,3.34
2023-04-07T22:39:47.722Z,3.32
2023-04-07T22:42:15.585Z,3.29
2023-04-07T22:44:43.289Z,3.25
2023-04-07T22:47:11.145Z,3.27
2023-04-07T22:49:38.941Z,3.25
2023-04-07T22:52:06.746Z,3.22
2023-04-07T22:54:37.724Z,3.20
2023-04-07T22:57:08.446Z,3.20
2023-04-07T22:59:36.639Z,3.17
2023-04-07T23:02:04.368Z,3.18
2023-04-07T23:04:32.232Z,3.15
2023-04-07T23:06:59.948Z,3.19
2023-04-07T23:09:27.774Z,3.19
2023-04-07T23:11:56.994Z,3.14
2023-04-07T23:14:24.739Z,3.12
2023-04-07T23:16:54.529Z,3.12
2023-04-07T23:19:22.404Z,3.12
2023-04-07T23:21:50.182Z,3.12
2023-04-07T23:24:17.900Z,3.09
2023-04-07T23:26:45.657Z,3.06
2023-04-07T23:29:13.492Z,3.05
2023-04-07T23:31:41.354Z,3.05
2023-04-07T23:34:09.085Z,3.04
2023-04-07T23:36:37.196Z,2.98
2023-04-07T23:39:04.932Z,2.95
2023-04-07T23:41:33.123Z,2.90
2023-04-07T23:44:00.917Z,2.85
2023-04-07T23:46:28.677Z,2.88
2023-04-07T23:48:58.645Z,2.87
2023-04-07T23:51:27.864Z,2.85
2023-04-07T23:53:55.711Z,2.81
2023-04-07T23:56:23.870Z,2.79
2023-04-07T23:58:51.760Z,2.76
